CheckWX is a tool to help pilots better visualize weather data.  It is not intended as a substitute for an official pre-flight weather briefing.

21:07:24 UTC

EHLW METAR
Leeuwarden Air Base Airport
Leeuwarden, The Netherlands
Current

12 mins ago

EHLW 232055Z AUTO 23003KT 9999 OVC240 12/10 Q1015 BLU
Observed
May-23 @ 20:55 UTC
Wind
  • 230° at 3 KTS
Visibility
10,000+ meters
Flight Rules
VFR
Cloud Levels
  • Overcast at 24,000' AGL
Temperature
12°C / 54°F
Dewpoint
10°C / 50°F
Humidity
88%
Altimeter
29.97" Hg
Pressure
1014.92 hPa
Previous

42 mins ago

EHLW 232025Z AUTO 21002KT 9999 OVC240 11/10 Q1015 BLU
Observed
May-23 @ 20:25 UTC
Wind
  • 210° at 2 KTS
Visibility
10,000+ meters
Flight Rules
VFR
Cloud Levels
  • Overcast at 24,000' AGL
Temperature
11°C / 52°F
Dewpoint
10°C / 50°F
Humidity
94%
Altimeter
29.97" Hg
Pressure
1014.92 hPa
Previous

2 hours ago

EHLW 231925Z AUTO 27002KT 9999 FEW210 OVC280 13/09 Q1015 BLU
Observed
May-23 @ 19:25 UTC
Wind
  • 270° at 2 KTS
Visibility
10,000+ meters
Flight Rules
VFR
Cloud Levels
  • Few at 21,000' AGL
  • Overcast at 28,000' AGL
Temperature
13°C / 55°F
Dewpoint
C / 48°F
Humidity
77%
Altimeter
29.97" Hg
Pressure
1014.92 hPa